Aérodrome :
LOGIN :

S'inscrire | Disclaimer

   EN    FR    IT 

 










Légende :    VFR   VFR Marginal   IFR   IFR Intensif   IFR Très Intensif
Visi : 
Plafond : 
>= 8 km
>= 3000ft
5 à 8 km
1000 à 3000 ft
1500m à 5 km
500 à 1000 ft
800 à 1500m
200 à 500 ft
< 800m
< 200 ft
Symboles :   Orages  Brouillard  Fortes neiges  Fortes précipitations  Vent > 20 kt
SIGMETs :   Divers  Orages  Givrage  Turbulence  Onde Orograph.  Cendres Volcan.






- Altitude de l'aérodrome : 268 ft
- Code IATA : BFS


EGAA - Belfast Aldergrove

DERNIER METAR :
  • 210620Z 21016KT 9999 -RA BKN011 BKN016 07/06 Q1006

METARs EXPIRÉS :
  • 210550Z 21016KT 9999 -RA BKN011 BKN016 06/05 Q1007
  • 210520Z 21015G25KT 9999 -RA BKN010 BKN015 06/05 Q1007
  • 210450Z 21016KT 9999 -RA BKN010 BKN014 06/05 Q1007
  • 210350Z 21016KT 9999 -RA BKN011 OVC021 06/04 Q1008

TAF TAF EGAA
Valide du 21 à 06h jusqu'au 22 à 06h UTC


210458Z 2106/2206 22018G28KT 9999 FEW010 SCT020
TEMPO 2106/2121 7000 RA -RADZ SCT008 BKN010
TEMPO 2110/2204 23025G38KT
PROB30
TEMPO 2121/2202 4000 +SHRA BKN014
PROB30
TEMPO 2202/2206 7000 SHRA BKN014



MET'MAP, la Météo Aéronautique d'un coup d'oeil ! - Copyright ORBIFLY Décembre 2007 - Disclaimer

ORBIFLY MET'MAP TEAM :

Programmation & Développement : Alexandra Zaïnal
Sur une idée originale de : Baudouin d'Aumeries
Assistance à la programmation : Marc-Olivier Méhu
Soutien technique & logistique : Manuel Goepfert

Contact : metmap@orbifly.com




SOURCES & CREDITS :

   NOAA